Time;durP1;ratioP1;P1;durP2;ratioP2;P2;SDS_P1;SDS_P2;PMS_P1;PMS_P2;Temp;Humidity;BMP_temperature;BMP_pressure;BME280_temperature;BME280_humidity;BME280_pressure;Samples;Min_cycle;Max_cycle;Signal;HPM_P1;HPM_P2
2021/12/05 00:19:54;;;;;;;20.90;14.30;;;;;;;4.28;59.27;100220.01;116872;1189;21985;-55
2021/12/05 00:22:38;;;;;;;21.40;15.30;;;;;;;4.30;59.31;100221.58;116859;1189;21902;-55
2021/12/05 00:25:08;;;;;;;22.80;15.70;;;;;;;4.35;59.27;100225.63;117016;1189;21852;-58
2021/12/05 00:27:52;;;;;;;25.90;16.30;;;;;;;4.35;59.26;100222.50;117338;1182;21910;-59
2021/12/05 01:08:20;;;;;;;23.60;15.50;;;;;;;3.40;58.83;100195.48;117207;1189;21856;-57
2021/12/05 01:16:08;;;;;;;70.60;41.30;;;;;;;3.04;58.75;100194.45;117314;1185;21849;-58
2021/12/05 01:18:37;;;;;;;67.00;38.70;;;;;;;2.95;58.69;100194.13;117317;1185;22931;-54
2021/12/05 01:21:09;;;;;;;64.60;37.30;;;;;;;2.89;58.67;100190.73;117225;1185;21895;-58
2021/12/05 01:37:00;;;;;;;30.00;18.90;;;;;;;2.34;58.57;100179.92;117320;1186;21864;-60
2021/12/05 02:10:47;;;;;;;29.90;18.40;;;;;;;1.77;58.94;100191.14;116836;1189;21856;-55
2021/12/05 02:42:33;;;;;;;23.20;15.10;;;;;;;1.12;58.52;100206.49;116955;1186;23544;-52
2021/12/05 02:45:04;;;;;;;25.40;16.30;;;;;;;1.14;58.60;100197.38;117130;1187;21860;-58
2021/12/05 02:47:33;;;;;;;26.30;16.30;;;;;;;1.12;58.63;100193.86;117129;1186;22969;-53
2021/12/05 02:50:05;;;;;;;27.30;15.30;;;;;;;1.09;58.72;100188.98;117110;1186;21860;-54
2021/12/05 02:52:37;;;;;;;23.50;15.10;;;;;;;1.06;58.45;100184.95;117158;1189;22898;-54
2021/12/05 02:55:27;;;;;;;24.70;15.30;;;;;;;1.01;58.30;100181.36;117159;1189;22934;-54
2021/12/05 02:58:02;;;;;;;24.00;14.20;;;;;;;0.97;58.36;100179.36;117074;1186;21860;-58
2021/12/05 03:00:44;;;;;;;26.40;15.60;;;;;;;0.91;58.63;100188.02;117166;1189;23483;-54
2021/12/05 03:03:25;;;;;;;22.40;13.70;;;;;;;0.85;58.44;100194.98;117116;1186;21901;-58
2021/12/05 03:06:00;;;;;;;27.70;15.70;;;;;;;0.81;58.48;100192.47;117060;1186;21845;-54
2021/12/05 03:08:28;;;;;;;21.80;13.50;;;;;;;0.79;58.63;100187.40;117271;1186;21845;-53
2021/12/05 03:10:58;;;;;;;23.50;13.70;;;;;;;0.74;58.85;100182.80;117293;1181;23438;-57
2021/12/05 03:13:26;;;;;;;23.10;14.50;;;;;;;0.72;58.72;100190.00;117328;1185;22924;-52
2021/12/05 03:15:58;;;;;;;24.20;14.80;;;;;;;0.68;58.68;100194.73;117230;1186;21895;-57
2021/12/05 03:18:28;;;;;;;24.00;14.40;;;;;;;0.64;58.85;100194.64;117312;1186;21874;-53
2021/12/05 03:20:58;;;;;;;25.70;15.50;;;;;;;0.64;58.86;100203.79;117281;1186;21861;-53
2021/12/05 03:23:31;;;;;;;24.20;14.80;;;;;;;0.62;58.91;100203.04;117355;1186;23022;-58
2021/12/05 03:25:59;;;;;;;25.00;15.00;;;;;;;0.59;58.77;100207.48;117290;1186;23713;-53
2021/12/05 03:28:27;;;;;;;23.10;14.70;;;;;;;0.55;58.99;100207.88;117375;1186;21857;-57
2021/12/05 03:30:56;;;;;;;28.10;16.30;;;;;;;0.51;59.03;100200.70;117408;1183;21982;-58
2021/12/05 03:33:25;;;;;;;27.70;15.70;;;;;;;0.49;59.04;100203.92;117319;1185;21857;-57
2021/12/05 03:35:53;;;;;;;26.50;15.70;;;;;;;0.47;58.84;100204.20;117271;1186;21848;-54
2021/12/05 03:38:21;;;;;;;25.10;15.20;;;;;;;0.42;58.76;100205.83;117280;1186;21860;-55
2021/12/05 03:40:51;;;;;;;25.30;15.20;;;;;;;0.40;58.87;100207.16;117295;1186;22897;-57
2021/12/05 03:43:19;;;;;;;26.90;15.90;;;;;;;0.38;58.94;100210.54;117262;1186;22116;-53
2021/12/05 03:45:50;;;;;;;29.50;17.20;;;;;;;0.36;58.93;100217.21;117293;1186;21845;-53
2021/12/05 03:48:19;;;;;;;29.00;17.30;;;;;;;0.35;58.97;100217.36;117319;1182;21943;-53
2021/12/05 03:50:48;;;;;;;31.00;17.70;;;;;;;0.33;59.05;100222.17;117356;1186;24675;-56
2021/12/05 03:53:16;;;;;;;29.00;17.70;;;;;;;0.34;59.10;100223.72;117241;1186;21845;-58
2021/12/05 03:55:46;;;;;;;33.30;19.60;;;;;;;0.37;58.96;100228.98;117306;1186;21844;-53
2021/12/05 03:58:15;;;;;;;29.40;18.10;;;;;;;0.42;58.95;100230.01;117237;1188;21870;-58
2021/12/05 04:00:45;;;;;;;29.80;18.70;;;;;;;0.40;59.04;100225.29;117340;1185;21841;-53
2021/12/05 04:03:14;;;;;;;;;;;;;;;0.40;59.20;100227.20;117368;1186;21834;-57
2021/12/05 04:05:43;;;;;;;26.30;16.30;;;;;;;0.42;59.07;100226.54;117356;1182;21940;-57
2021/12/05 04:08:13;;;;;;;32.40;18.30;;;;;;;0.46;59.30;100224.90;117340;1186;21855;-52
2021/12/05 04:10:43;;;;;;;28.80;18.60;;;;;;;0.49;59.22;100225.33;117309;1183;21964;-53
2021/12/05 04:13:14;;;;;;;32.10;19.20;;;;;;;0.53;59.25;100225.09;117261;1186;21898;-57
2021/12/05 04:15:42;;;;;;;29.70;18.00;;;;;;;0.59;59.27;100223.17;117301;1185;21855;-53
2021/12/05 04:18:10;;;;;;;29.40;18.10;;;;;;;0.65;59.47;100221.61;117287;1182;22656;-57
2021/12/05 04:20:39;;;;;;;30.20;19.20;;;;;;;0.72;59.46;100225.59;117288;1186;21848;-53
2021/12/05 04:23:07;;;;;;;32.30;19.40;;;;;;;0.80;59.15;100225.61;117322;1186;22162;-54
2021/12/05 04:25:37;;;;;;;29.80;18.30;;;;;;;0.88;59.45;100221.30;117218;1186;21867;-58
2021/12/05 04:28:06;;;;;;;32.20;19.40;;;;;;;1.03;59.44;100220.98;117349;1183;21856;-58
2021/12/05 04:30:34;;;;;;;35.60;20.30;;;;;;;1.11;59.32;100214.24;117308;1185;22901;-59
2021/12/05 04:33:02;;;;;;;32.70;20.10;;;;;;;1.20;59.41;100217.58;117324;1186;21858;-59
2021/12/05 04:35:32;;;;;;;39.60;21.30;;;;;;;1.29;59.33;100220.55;117292;1186;21856;-58
2021/12/05 04:38:00;;;;;;;31.70;20.20;;;;;;;1.39;59.54;100217.48;117365;1185;21857;-59
2021/12/05 04:40:28;;;;;;;32.60;20.80;;;;;;;1.49;59.72;100214.93;117344;1185;21857;-55
2021/12/05 04:42:56;;;;;;;30.90;18.80;;;;;;;1.56;59.59;100206.95;117414;1182;22292;-58
2021/12/05 04:45:27;;;;;;;33.00;20.10;;;;;;;1.64;59.67;100204.20;117272;1186;21863;-54
2021/12/05 04:47:56;;;;;;;34.50;19.10;;;;;;;1.73;59.39;100203.34;117460;1185;24135;-55
2021/12/05 04:50:24;;;;;;;34.50;21.90;;;;;;;1.78;59.64;100203.27;117277;1183;21884;-54
2021/12/05 04:52:54;;;;;;;33.70;20.00;;;;;;;1.84;59.52;100202.86;117240;1186;21870;-55
2021/12/05 04:55:23;;;;;;;24.90;14.80;;;;;;;1.87;59.55;100200.52;117330;1186;23743;-55
2021/12/05 04:57:52;;;;;;;32.10;21.00;;;;;;;1.94;59.37;100199.27;117368;1182;23438;-55
2021/12/05 05:00:41;;;;;;;29.90;19.70;;;;;;;2.02;59.53;100200.98;117371;1184;21855;-54
2021/12/05 05:03:11;;;;;;;36.20;21.90;;;;;;;2.15;59.54;100193.45;117243;1186;22922;-58
2021/12/05 05:05:47;;;;;;;38.20;20.40;;;;;;;2.23;59.57;100186.13;117275;1186;21860;-58
2021/12/05 05:08:16;;;;;;;34.70;19.80;;;;;;;2.34;59.70;100186.67;117394;1186;22172;-55
2021/12/05 05:10:45;;;;;;;42.70;21.40;;;;;;;2.40;59.55;100187.48;117282;1186;23462;-58
2021/12/05 05:13:14;;;;;;;52.50;23.40;;;;;;;2.46;59.48;100184.47;117250;1183;21897;-53
2021/12/05 05:15:42;;;;;;;38.00;22.30;;;;;;;2.55;59.69;100180.98;117265;1186;21858;-55
2021/12/05 05:18:12;;;;;;;42.40;21.80;;;;;;;2.64;59.85;100178.02;117250;1186;21857;-55
2021/12/05 05:20:51;;;;;;;46.50;21.10;;;;;;;2.71;59.78;100171.38;117319;1183;21877;-58
2021/12/05 05:26:39;;;;;;;38.80;22.10;;;;;;;2.91;59.84;100155.74;117312;1186;21867;-57
2021/12/05 05:50:31;;;;;;;34.30;22.40;;;;;;;3.64;59.83;100178.10;117308;1186;21871;-57
2021/12/05 05:52:59;;;;;;;35.00;21.30;;;;;;;3.65;59.76;100179.67;117354;1185;23459;-54
2021/12/05 05:55:28;;;;;;;34.50;22.40;;;;;;;3.67;59.79;100180.05;117268;1186;23538;-53
2021/12/05 05:58:06;;;;;;;39.90;21.60;;;;;;;3.68;59.83;100186.48;117261;1186;21868;-54
2021/12/05 06:00:40;;;;;;;37.60;21.40;;;;;;;3.66;59.83;100188.20;117319;1182;23459;-54
2021/12/05 06:03:21;;;;;;;54.10;22.20;;;;;;;3.65;59.62;100188.86;117316;1186;21903;-58
2021/12/05 06:05:53;;;;;;;38.90;21.40;;;;;;;3.70;59.77;100187.20;117253;1183;23423;-54
2021/12/05 06:08:24;;;;;;;37.50;22.50;;;;;;;3.78;59.93;100189.91;117336;1185;21883;-57
2021/12/05 06:10:58;;;;;;;35.70;21.40;;;;;;;3.86;60.10;100186.35;117357;1185;22156;-59
2021/12/05 06:13:27;;;;;;;34.00;20.80;;;;;;;3.94;59.94;100188.88;117412;1183;21856;-55
2021/12/05 06:16:08;;;;;;;36.50;21.60;;;;;;;4.01;59.92;100199.20;117274;1182;21837;-55
2021/12/05 06:18:39;;;;;;;37.30;22.80;;;;;;;4.08;59.84;100201.70;117340;1186;23437;-59
2021/12/05 06:21:07;;;;;;;31.70;21.30;;;;;;;4.15;59.94;100200.56;117331;1186;22952;-56
2021/12/05 06:23:36;;;;;;;32.90;21.50;;;;;;;4.22;59.87;100199.79;117356;1186;21898;-58
2021/12/05 06:26:08;;;;;;;31.10;21.40;;;;;;;4.33;59.74;100202.16;117422;1186;21854;-56
2021/12/05 06:28:44;;;;;;;33.50;21.90;;;;;;;4.41;60.03;100199.46;117365;1183;21877;-58
2021/12/05 06:31:42;;;;;;;34.20;22.40;;;;;;;4.48;59.90;100194.65;117356;1185;23435;-58
2021/12/05 06:37:29;;;;;;;35.50;22.90;;;;;;;4.64;59.99;100200.20;117349;1183;21854;-56
2021/12/05 06:43:17;;;;;;;36.90;21.90;;;;;;;4.78;59.91;100205.88;117337;1182;21858;-54
2021/12/05 06:48:29;;;;;;;38.30;22.60;;;;;;;4.88;60.15;100193.27;117319;1186;23634;-53
2021/12/05 06:50:59;;;;;;;35.90;22.80;;;;;;;4.91;59.91;100193.29;117278;1186;21892;-54
2021/12/05 06:53:27;;;;;;;37.00;23.60;;;;;;;4.95;60.06;100196.98;117293;1186;21880;-54
2021/12/05 06:55:55;;;;;;;32.90;22.80;;;;;;;4.96;59.74;100196.29;117323;1185;21921;-53
2021/12/05 06:58:23;;;;;;;35.30;24.20;;;;;;;4.98;59.66;100199.59;117419;1180;21860;-58
2021/12/05 07:00:52;;;;;;;34.90;23.50;;;;;;;4.98;59.74;100199.08;117384;1185;24150;-56
2021/12/05 07:03:20;;;;;;;33.50;23.30;;;;;;;4.99;59.79;100197.53;117331;1185;21912;-53
2021/12/05 07:05:58;;;;;;;35.60;23.50;;;;;;;5.01;59.88;100194.24;117351;1185;21899;-56
2021/12/05 07:08:30;;;;;;;31.20;22.30;;;;;;;5.04;59.60;100198.09;117375;1183;21883;-53
2021/12/05 07:11:10;;;;;;;33.70;22.20;;;;;;;5.05;59.87;100197.06;117291;1182;21864;-53
2021/12/05 07:21:57;;;;;;;33.10;21.80;;;;;;;5.09;59.97;100199.86;117225;1182;21873;-53
2021/12/05 07:40:42;;;;;;;32.80;20.50;;;;;;;5.24;59.62;100205.53;117387;1183;24208;-56
2021/12/05 07:43:10;;;;;;;32.60;21.80;;;;;;;5.30;59.67;100209.75;117377;1185;21891;-56
2021/12/05 07:45:49;;;;;;;31.70;21.40;;;;;;;5.30;59.61;100213.06;117378;1186;21859;-58
2021/12/05 07:48:25;;;;;;;30.40;20.80;;;;;;;5.29;59.35;100214.45;117269;1186;21860;-56
2021/12/05 07:51:21;;;;;;;33.30;21.60;;;;;;;5.29;59.38;100215.32;117303;1189;23436;-56
2021/12/05 07:54:04;;;;;;;870.20;118.70;;;;;;;5.35;59.54;100213.95;117398;1186;23448;-58
2021/12/05 07:56:55;;;;;;;199.00;37.90;;;;;;;5.47;60.09;100213.52;117373;1182;23580;-54
2021/12/05 08:16:10;;;;;;;171.70;34.20;;;;;;;6.52;59.94;100211.84;117275;1185;23463;-54
2021/12/05 08:18:42;;;;;;;106.00;30.30;;;;;;;6.60;59.84;100216.73;117341;1186;21866;-55
2021/12/05 08:21:14;;;;;;;79.90;27.40;;;;;;;6.66;59.85;100211.52;117281;1186;21867;-53
2021/12/05 08:23:42;;;;;;;53.40;25.10;;;;;;;6.73;60.03;100212.23;117357;1185;21871;-54
2021/12/05 08:26:17;;;;;;;738.40;105.20;;;;;;;6.82;59.91;100212.92;117395;1185;21841;-56
2021/12/05 09:51:00;;;;;;;151.40;48.90;;;;;;;7.94;60.19;100175.16;117095;1186;21877;-56
2021/12/05 10:37:45;;;;;;;455.20;122.00;;;;;;;8.81;60.19;100125.82;117287;1186;23449;-55
2021/12/05 10:40:39;;;;;;;500.50;180.90;;;;;;;8.83;60.30;100122.30;117396;1186;22110;-57
2021/12/05 10:43:17;;;;;;;1974.60;487.90;;;;;;;8.85;60.23;100116.48;117323;1186;23437;-58
2021/12/05 10:45:51;;;;;;;1020.60;238.00;;;;;;;8.86;60.26;100112.64;117363;1186;21858;-57
2021/12/05 10:48:30;;;;;;;283.40;87.10;;;;;;;8.87;60.30;100108.95;117294;1185;21871;-57
2021/12/05 10:51:08;;;;;;;97.40;37.60;;;;;;;8.89;60.26;100103.33;117318;1186;22218;-57
2021/12/05 10:53:43;;;;;;;49.30;25.70;;;;;;;8.87;60.12;100096.88;117369;1184;21859;-55
2021/12/05 10:56:13;;;;;;;30.80;20.00;;;;;;;8.78;60.26;100098.71;117346;1186;21858;-59
2021/12/05 10:59:01;;;;;;;27.20;18.10;;;;;;;8.71;60.25;100092.48;117394;1176;21861;-56
2021/12/05 11:01:43;;;;;;;19.60;14.80;;;;;;;8.62;60.13;100087.84;117314;1186;21856;-57
2021/12/05 11:04:16;;;;;;;15.60;12.60;;;;;;;8.52;60.06;100087.05;117337;1185;21857;-55
2021/12/05 11:06:52;;;;;;;18.20;13.60;;;;;;;8.38;60.06;100084.51;117308;1185;23505;-56
2021/12/05 11:09:32;;;;;;;21.50;13.50;;;;;;;8.29;60.23;100089.66;117314;1186;21961;-54
2021/12/05 11:12:01;;;;;;;16.80;12.60;;;;;;;8.24;60.15;100096.50;117114;1186;21867;-55
2021/12/05 11:15:04;;;;;;;15.90;11.80;;;;;;;8.16;60.30;100095.34;117332;1186;24157;-59
2021/12/05 11:17:34;;;;;;;15.50;12.70;;;;;;;8.10;60.30;100089.09;117132;1186;23416;-60
2021/12/05 11:20:09;;;;;;;16.90;12.80;;;;;;;8.08;60.35;100089.45;117051;1185;21860;-57
2021/12/05 11:22:48;;;;;;;16.60;12.60;;;;;;;8.03;60.40;100095.06;117054;1188;22892;-60
2021/12/05 11:25:21;;;;;;;19.00;14.10;;;;;;;8.02;60.48;100097.70;116999;1187;22912;-57
2021/12/05 11:27:54;;;;;;;20.80;13.70;;;;;;;7.98;60.41;100098.77;117112;1187;21910;-60
2021/12/05 11:30:32;;;;;;;20.50;13.90;;;;;;;7.96;60.35;100099.66;117062;1187;21922;-56
2021/12/05 11:33:02;;;;;;;17.70;13.00;;;;;;;7.96;60.26;100090.39;117071;1188;22960;-56
2021/12/05 11:35:46;;;;;;;17.30;13.40;;;;;;;7.95;60.32;100088.66;117073;1186;21861;-60
2021/12/05 11:38:20;;;;;;;18.50;13.30;;;;;;;7.96;60.48;100090.23;117049;1186;21871;-59
2021/12/05 11:40:52;;;;;;;18.00;13.80;;;;;;;7.94;60.61;100086.40;117039;1191;22629;-59
2021/12/05 11:43:35;;;;;;;16.30;13.50;;;;;;;7.94;60.48;100085.52;117037;1186;22612;-55
2021/12/05 11:46:06;;;;;;;17.70;13.00;;;;;;;7.93;60.44;100087.80;117037;1188;21964;-58
2021/12/05 11:48:44;;;;;;;18.20;13.30;;;;;;;7.93;60.55;100086.41;117000;1186;23632;-57
2021/12/05 11:51:28;;;;;;;18.20;13.70;;;;;;;7.92;60.47;100091.66;117038;1187;21859;-60
2021/12/05 11:54:10;;;;;;;18.50;14.00;;;;;;;7.90;60.59;100097.77;117265;1186;23018;-60
2021/12/05 11:56:58;;;;;;;21.30;15.10;;;;;;;7.91;60.46;100091.48;117319;1183;23210;-57
2021/12/05 11:59:29;;;;;;;20.30;14.90;;;;;;;7.94;60.51;100088.67;117296;1181;23567;-56
2021/12/05 12:02:02;;;;;;;24.60;16.40;;;;;;;7.94;60.63;100094.10;117351;1184;22769;-56
2021/12/05 12:04:43;;;;;;;24.90;16.70;;;;;;;7.95;60.58;100089.88;117260;1181;23330;-59
2021/12/05 12:07:26;;;;;;;20.70;15.30;;;;;;;7.97;60.51;100093.19;117313;1180;23206;-56
2021/12/05 12:10:13;;;;;;;22.40;16.30;;;;;;;8.00;60.49;100091.77;117293;1186;21858;-59
2021/12/05 12:12:44;;;;;;;22.80;16.00;;;;;;;7.99;60.66;100092.84;117273;1184;24145;-56
2021/12/05 12:15:14;;;;;;;;;;;;;;;8.00;60.39;100097.36;119420;1182;22300;-57
2021/12/05 12:17:43;;;;;;;20.20;15.40;;;;;;;7.99;60.56;100102.77;118702;1185;21862;-56
2021/12/05 12:20:21;;;;;;;24.60;17.00;;;;;;;7.99;60.48;100104.70;117287;1183;21832;-57
2021/12/05 12:22:50;;;;;;;23.00;17.20;;;;;;;7.98;60.36;100104.19;117317;1186;23435;-56
2021/12/05 12:25:21;;;;;;;19.80;14.90;;;;;;;7.96;60.46;100105.42;117329;1185;21895;-57
2021/12/05 12:27:49;;;;;;;24.60;18.00;;;;;;;7.96;60.36;100106.31;117366;1184;23435;-60
2021/12/05 12:30:24;;;;;;;22.70;16.50;;;;;;;7.97;60.49;100104.20;117343;1184;21861;-56
2021/12/05 12:32:59;;;;;;;25.00;18.50;;;;;;;7.97;60.25;100104.20;117394;1182;23435;-60
2021/12/05 12:35:29;;;;;;;23.30;17.10;;;;;;;7.93;60.46;100100.22;117321;1185;21854;-59
2021/12/05 12:37:57;;;;;;;25.90;17.70;;;;;;;7.91;60.56;100095.85;117277;1186;24153;-56
2021/12/05 12:41:01;;;;;;;26.20;17.30;;;;;;;7.89;60.48;100090.45;117267;1184;23563;-60
2021/12/05 12:43:42;;;;;;;22.40;15.30;;;;;;;7.90;60.61;100085.38;117314;1185;22896;-59
2021/12/05 12:46:13;;;;;;;;;;;;;;;7.90;60.45;100092.19;117346;1182;21851;-55
2021/12/05 12:48:41;;;;;;;19.00;14.60;;;;;;;7.90;60.64;100095.34;117279;1180;21862;-56
2021/12/05 12:51:30;;;;;;;21.50;15.30;;;;;;;7.90;60.67;100096.91;117198;1186;24155;-60
2021/12/05 12:54:14;;;;;;;20.80;15.00;;;;;;;7.90;60.55;100100.40;117140;1186;23371;-56
2021/12/05 12:57:06;;;;;;;23.50;14.80;;;;;;;7.91;60.78;100102.50;117334;1184;21860;-60
2021/12/05 12:59:42;;;;;;;24.40;16.00;;;;;;;7.88;60.68;100107.58;117326;1186;24163;-56
2021/12/05 13:02:30;;;;;;;27.10;18.20;;;;;;;7.89;60.71;100108.98;117315;1185;21872;-59
2021/12/05 13:05:24;;;;;;;27.10;18.80;;;;;;;7.90;60.63;100108.78;117167;1185;22835;-53
2021/12/05 13:10:25;;;;;;;29.30;19.50;;;;;;;7.90;60.64;100103.38;117150;1186;21993;-56
2021/12/05 13:12:55;;;;;;;26.40;18.80;;;;;;;7.89;60.41;100097.96;117300;1185;21859;-57
2021/12/05 13:15:50;;;;;;;35.00;24.70;;;;;;;7.89;60.53;100099.01;117274;1185;22539;-60
2021/12/05 13:18:30;;;;;;;28.50;20.10;;;;;;;7.93;60.70;100096.36;117325;1185;22633;-60
2021/12/05 13:21:02;;;;;;;23.70;16.40;;;;;;;7.98;60.59;100092.65;117182;1185;22916;-56
2021/12/05 13:23:43;;;;;;;25.60;16.90;;;;;;;7.98;60.57;100092.48;117263;1183;22643;-57
2021/12/05 13:26:15;;;;;;;24.30;16.40;;;;;;;7.95;60.67;100093.38;117305;1185;23635;-56
2021/12/05 13:28:49;;;;;;;22.60;15.80;;;;;;;7.95;60.69;100093.39;117380;1184;21873;-60
2021/12/05 13:31:26;;;;;;;23.60;16.30;;;;;;;7.95;60.47;100100.55;117337;1186;23564;-56
2021/12/05 13:34:17;;;;;;;28.00;17.30;;;;;;;7.92;60.43;100101.61;117351;1183;21863;-56
2021/12/05 13:37:07;;;;;;;24.70;16.20;;;;;;;7.93;60.59;100099.35;117322;1184;21858;-59
2021/12/05 13:39:39;;;;;;;22.00;16.00;;;;;;;7.94;60.54;100100.20;117183;1185;21861;-55
2021/12/05 13:42:10;;;;;;;26.90;17.40;;;;;;;7.95;60.54;100100.02;117401;1184;24219;-59
2021/12/05 13:48:07;;;;;;;24.60;17.50;;;;;;;7.97;60.48;100098.95;117379;1185;21862;-56
2021/12/05 13:50:42;;;;;;;27.40;18.30;;;;;;;7.97;60.62;100102.11;117349;1185;21864;-55
2021/12/05 13:53:12;;;;;;;25.30;17.40;;;;;;;7.95;60.52;100103.69;117340;1185;21899;-60
2021/12/05 13:55:46;;;;;;;33.70;20.10;;;;;;;7.97;60.77;100100.88;117278;1185;23438;-60
2021/12/05 13:58:40;;;;;;;29.80;20.70;;;;;;;7.99;60.70;100107.85;117326;1185;21861;-56
2021/12/05 14:01:28;;;;;;;31.40;21.20;;;;;;;8.00;60.71;100105.92;117111;1186;21874;-55
2021/12/05 14:04:17;;;;;;;28.20;20.10;;;;;;;8.00;60.86;100097.19;117321;1185;22843;-59
2021/12/05 14:06:57;;;;;;;38.60;20.80;;;;;;;8.05;60.89;100088.25;117291;1186;22732;-59
2021/12/05 14:09:35;;;;;;;32.20;20.90;;;;;;;8.09;60.97;100091.90;117264;1181;21864;-55
2021/12/05 14:12:03;;;;;;;28.20;17.90;;;;;;;8.09;60.85;100094.00;117334;1185;21856;-54
2021/12/05 14:14:35;;;;;;;27.00;17.80;;;;;;;8.06;60.73;100095.59;117413;1184;22909;-55
2021/12/05 14:17:15;;;;;;;23.70;18.10;;;;;;;8.05;60.89;100099.61;117296;1184;22912;-59
2021/12/05 14:19:47;;;;;;;25.30;18.30;;;;;;;8.05;60.69;100099.08;117356;1185;21893;-58
2021/12/05 14:22:16;;;;;;;26.40;18.20;;;;;;;8.05;60.82;100103.27;117098;1184;22418;-54
2021/12/05 14:24:48;;;;;;;26.30;18.30;;;;;;;8.03;60.93;100107.48;117323;1186;21865;-58
2021/12/05 14:27:25;;;;;;;30.10;20.70;;;;;;;8.04;60.81;100103.27;117344;1185;21943;-54
2021/12/05 14:29:53;;;;;;;30.10;19.40;;;;;;;8.03;60.66;100100.67;117315;1185;22925;-55
2021/12/05 14:32:27;;;;;;;29.50;20.80;;;;;;;8.00;60.81;100099.46;117332;1185;21858;-59
2021/12/05 14:34:57;;;;;;;27.10;19.30;;;;;;;8.00;60.71;100094.92;117275;1184;23471;-59
2021/12/05 14:37:26;;;;;;;;;;;;;;;7.99;60.74;100095.80;117190;1185;22932;-55
2021/12/05 14:40:00;;;;;;;30.80;18.70;;;;;;;7.98;60.94;100095.98;117328;1183;22160;-58
2021/12/05 14:42:44;;;;;;;28.90;19.80;;;;;;;7.98;61.02;100092.48;117263;1184;24179;-55
2021/12/05 14:45:15;;;;;;;28.50;19.90;;;;;;;7.99;60.91;100091.08;117255;1186;23436;-59
2021/12/05 14:47:50;;;;;;;26.50;18.70;;;;;;;8.01;60.88;100088.10;117389;1185;24149;-55
2021/12/05 14:50:27;;;;;;;30.40;19.90;;;;;;;8.03;60.91;100091.94;117345;1181;22644;-58
2021/12/05 14:52:57;;;;;;;30.00;20.60;;;;;;;8.03;61.08;100092.10;117294;1185;24151;-55
2021/12/05 14:55:27;;;;;;;29.90;21.60;;;;;;;8.04;61.04;100092.62;117332;1186;21911;-55
2021/12/05 14:57:57;;;;;;;29.20;20.10;;;;;;;8.07;60.97;100090.33;117339;1182;22661;-59
2021/12/05 15:00:30;;;;;;;33.10;22.10;;;;;;;8.05;60.99;100091.92;117381;1182;21854;-55
2021/12/05 15:02:59;;;;;;;29.80;21.80;;;;;;;8.03;60.82;100092.98;117343;1184;23564;-60
2021/12/05 15:05:28;;;;;;;27.80;20.80;;;;;;;8.02;60.82;100092.64;117306;1185;22723;-54
2021/12/05 15:08:00;;;;;;;30.20;21.50;;;;;;;8.02;60.91;100091.41;117319;1185;23436;-59
2021/12/05 15:10:29;;;;;;;31.90;21.40;;;;;;;8.06;60.94;100094.54;117337;1186;23551;-59
2021/12/05 15:12:57;;;;;;;30.10;20.30;;;;;;;8.05;60.83;100093.31;117276;1186;23463;-55
2021/12/05 15:15:26;;;;;;;28.60;20.60;;;;;;;8.07;60.98;100096.10;117301;1185;22905;-59
2021/12/05 15:17:56;;;;;;;31.60;22.70;;;;;;;8.09;60.84;100097.66;117299;1184;24797;-60
2021/12/05 15:20:30;;;;;;;29.50;20.70;;;;;;;8.07;61.16;100098.89;117318;1184;23582;-55
2021/12/05 15:23:06;;;;;;;29.20;19.90;;;;;;;8.08;60.93;100102.05;117300;1185;22917;-55
2021/12/05 15:25:37;;;;;;;29.40;20.90;;;;;;;8.08;60.83;100103.45;117348;1176;23473;-59
2021/12/05 15:28:06;;;;;;;32.30;21.30;;;;;;;8.07;60.90;100104.83;117317;1182;22893;-56
2021/12/05 15:30:35;;;;;;;31.90;21.90;;;;;;;8.11;60.94;100103.94;117316;1184;22624;-55
2021/12/05 15:33:13;;;;;;;32.70;22.80;;;;;;;8.08;60.98;100100.10;117307;1185;23539;-60
2021/12/05 15:35:43;;;;;;;35.10;22.50;;;;;;;8.07;61.08;100096.61;117299;1184;24195;-59
2021/12/05 15:38:24;;;;;;;32.60;21.40;;;;;;;8.09;60.93;100098.73;117304;1186;21899;-55
2021/12/05 15:40:57;;;;;;;34.90;22.20;;;;;;;8.10;61.01;100097.65;117132;1187;22901;-60
2021/12/05 15:43:26;;;;;;;31.80;22.40;;;;;;;8.10;60.99;100096.98;117327;1187;21859;-60
2021/12/05 15:45:56;;;;;;;30.60;21.50;;;;;;;8.11;60.99;100094.50;117344;1185;23458;-59
2021/12/05 15:48:34;;;;;;;33.60;21.40;;;;;;;8.11;61.10;100099.39;117300;1186;23376;-60
2021/12/05 15:51:06;;;;;;;33.10;22.10;;;;;;;8.11;61.07;100098.35;117378;1185;21856;-60
2021/12/05 15:53:35;;;;;;;33.70;21.80;;;;;;;8.12;61.02;100099.91;117283;1186;22658;-60
2021/12/05 15:56:06;;;;;;;28.70;20.40;;;;;;;8.14;61.06;100100.44;117316;1185;21852;-54
2021/12/05 15:58:52;;;;;;;30.00;20.50;;;;;;;8.15;60.98;100105.32;117341;1186;21861;-55
2021/12/05 16:01:22;;;;;;;29.90;21.40;;;;;;;8.16;61.17;100109.67;117311;1180;21859;-55
2021/12/05 16:03:53;;;;;;;30.30;21.00;;;;;;;8.18;61.08;100114.90;117307;1186;22915;-55
2021/12/05 16:06:29;;;;;;;28.60;19.70;;;;;;;8.20;61.10;100115.41;117284;1183;22558;-59
2021/12/05 16:08:58;;;;;;;29.60;19.40;;;;;;;8.24;61.07;100116.09;117144;1189;21903;-60
2021/12/05 16:11:27;;;;;;;27.20;20.00;;;;;;;8.24;61.13;100116.09;117106;1187;23464;-55
2021/12/05 16:13:55;;;;;;;27.60;18.80;;;;;;;8.24;61.05;100121.66;117357;1184;21858;-56
2021/12/05 16:16:26;;;;;;;27.30;19.30;;;;;;;8.25;61.10;100123.77;117306;1186;22910;-55
2021/12/05 16:18:57;;;;;;;28.40;18.70;;;;;;;8.25;61.02;100127.08;117307;1183;21862;-55
2021/12/05 16:21:28;;;;;;;24.90;17.80;;;;;;;8.26;61.13;100135.13;117326;1186;21861;-56
2021/12/05 16:24:07;;;;;;;24.90;18.60;;;;;;;8.28;61.21;100133.20;117355;1184;21858;-60
2021/12/05 16:26:35;;;;;;;21.80;16.00;;;;;;;8.31;61.00;100133.00;117314;1182;21891;-61
2021/12/05 16:29:11;;;;;;;23.00;16.60;;;;;;;8.33;61.08;100138.58;117064;1186;21849;-61
2021/12/05 16:31:44;;;;;;;26.20;17.20;;;;;;;8.34;61.08;100138.73;117262;1186;22153;-61
2021/12/05 16:34:21;;;;;;;24.50;16.20;;;;;;;8.37;61.07;100137.51;119213;1182;21862;-62
2021/12/05 16:36:52;;;;;;;20.90;15.30;;;;;;;8.38;61.12;100132.95;117304;1186;22384;-57
2021/12/05 16:39:31;;;;;;;24.20;16.40;;;;;;;8.38;60.97;100128.58;117340;1186;22650;-57
2021/12/05 16:42:20;;;;;;;20.90;14.60;;;;;;;8.37;60.87;100122.12;117334;1183;21905;-62
2021/12/05 16:44:51;;;;;;;22.00;15.10;;;;;;;8.37;61.00;100114.44;117078;1187;21859;-55
2021/12/05 16:47:21;;;;;;;19.10;13.70;;;;;;;8.39;61.00;100115.27;117063;1186;22858;-61
2021/12/05 16:49:52;;;;;;;21.40;14.60;;;;;;;8.40;61.03;100117.89;117050;1186;21869;-55
2021/12/05 16:52:23;;;;;;;22.20;15.10;;;;;;;8.37;61.22;100113.73;117042;1183;23443;-56
2021/12/05 16:55:03;;;;;;;19.40;13.80;;;;;;;8.37;61.06;100112.50;116982;1187;23435;-56
2021/12/05 16:57:41;;;;;;;21.90;15.80;;;;;;;8.41;61.15;100109.84;116818;1188;23800;-55
2021/12/05 17:00:16;;;;;;;20.20;14.20;;;;;;;8.43;61.20;100107.56;117084;1187;22004;-60
2021/12/05 17:02:57;;;;;;;18.70;13.20;;;;;;;8.43;61.17;100111.40;117037;1187;22948;-60
2021/12/05 17:05:28;;;;;;;18.00;13.40;;;;;;;8.45;61.15;100115.41;116987;1184;23453;-55
2021/12/05 17:08:09;;;;;;;18.00;13.60;;;;;;;8.46;61.03;100112.77;117003;1185;22935;-61
2021/12/05 17:10:46;;;;;;;18.20;13.70;;;;;;;8.49;61.12;100118.03;117028;1189;21852;-62
2021/12/05 17:13:37;;;;;;;21.10;14.80;;;;;;;8.50;61.03;100121.01;116956;1187;21842;-57
2021/12/05 17:16:11;;;;;;;16.70;13.20;;;;;;;8.52;61.01;100125.70;117816;1182;22623;-61
2021/12/05 17:19:02;;;;;;;20.00;13.80;;;;;;;8.48;61.20;100121.52;117348;1186;23462;-57
2021/12/05 17:21:58;;;;;;;18.40;13.70;;;;;;;8.49;61.12;100114.71;117287;1184;23564;-56
2021/12/05 17:24:28;;;;;;;18.30;13.90;;;;;;;8.51;61.38;100110.14;117134;1186;23557;-56